CheckWX is a tool to help pilots better visualize weather data.  It is not intended as a substitute for an official pre-flight weather briefing.

12:48:03 UTC

KDYB METAR
Summerville Airport
Summerville, South Carolina, USA
Current

33 mins ago

KDYB 191215Z AUTO 05005KT 10SM CLR 18/14 A3019 RMK AO2
Observed
Sep-19 @ 12:15 UTC
Wind
  • 050° at 5 KTS
Visibility
10 SM
Flight Rules
VFR
Cloud Levels
  • Clear skies
Temperature
18°C / 64°F
Dewpoint
14°C / 57°F
Humidity
78%
Altimeter
30.19" Hg
Pressure
1022.32 hPa
Previous

53 mins ago

KDYB 191155Z AUTO 05003KT 10SM CLR 16/14 A3018 RMK AO2
Observed
Sep-19 @ 11:55 UTC
Wind
  • 050° at 3 KTS
Visibility
10 SM
Flight Rules
VFR
Cloud Levels
  • Clear skies
Temperature
16°C / 61°F
Dewpoint
14°C / 57°F
Humidity
88%
Altimeter
30.18" Hg
Pressure
1022.02 hPa
Previous

1 hour ago

KDYB 191135Z AUTO 04004KT 10SM CLR 15/13 A3018 RMK AO2
Observed
Sep-19 @ 11:35 UTC
Wind
  • 040° at 4 KTS
Visibility
10 SM
Flight Rules
VFR
Cloud Levels
  • Clear skies
Temperature
15°C / 59°F
Dewpoint
13°C / 55°F
Humidity
88%
Altimeter
30.18" Hg
Pressure
1022.02 hPa